Time;durP1;ratioP1;P1;durP2;ratioP2;P2;SDS_P1;SDS_P2;PMS_P1;PMS_P2;Temp;Humidity;BMP_temperature;BMP_pressure;BME280_temperature;BME280_humidity;BME280_pressure;Samples;Min_cycle;Max_cycle;Signal;HPM_P1;HPM_P2
2021/12/27 00:01:54;;;;;;;10.27;6.68;;;-1.90;83.90;;;;;;5026005;28;20397;-64
2021/12/27 00:04:21;;;;;;;10.30;6.32;;;-2.00;84.00;;;;;;5026934;28;20067;-64
2021/12/27 00:06:47;;;;;;;8.38;5.53;;;-2.00;84.20;;;;;;5026060;28;20077;-64
2021/12/27 00:09:14;;;;;;;12.35;7.22;;;-2.00;84.40;;;;;;5026242;28;20560;-64
2021/12/27 00:11:43;;;;;;;9.32;5.93;;;-2.10;84.40;;;;;;5027027;28;20045;-64
2021/12/27 00:14:09;;;;;;;10.02;6.50;;;-2.10;84.50;;;;;;5025427;28;20033;-64
2021/12/27 00:16:36;;;;;;;12.23;6.63;;;-2.10;84.70;;;;;;5026520;28;20546;-63
2021/12/27 00:19:02;;;;;;;11.68;7.10;;;-2.10;84.40;;;;;;5025518;28;20131;-64
2021/12/27 00:21:29;;;;;;;10.63;5.63;;;-2.10;84.60;;;;;;5025786;28;20049;-64
2021/12/27 00:23:55;;;;;;;14.38;7.57;;;-2.20;85.10;;;;;;5025666;28;20045;-64
2021/12/27 00:26:23;;;;;;;14.00;6.95;;;-2.20;85.50;;;;;;5027020;28;20475;-64
2021/12/27 00:28:51;;;;;;;9.35;5.57;;;-2.20;86.00;;;;;;5025316;28;20522;-64
2021/12/27 00:31:19;;;;;;;11.55;5.47;;;-2.20;86.30;;;;;;5025224;28;20585;-64
2021/12/27 00:33:45;;;;;;;11.43;7.07;;;-2.20;86.70;;;;;;5025228;28;20484;-64
2021/12/27 00:36:12;;;;;;;10.43;7.13;;;-2.20;86.70;;;;;;5024391;28;20057;-64
2021/12/27 00:38:45;;;;;;;10.90;5.88;;;-2.30;86.90;;;;;;5023989;28;20067;-64
2021/12/27 00:41:11;;;;;;;10.93;6.55;;;-2.30;87.50;;;;;;5024425;28;20045;-64
2021/12/27 00:43:38;;;;;;;12.60;5.38;;;-2.30;87.90;;;;;;5024949;28;20057;-64
2021/12/27 00:46:07;;;;;;;11.05;6.90;;;-2.30;88.40;;;;;;5022890;28;20046;-64
2021/12/27 00:48:34;;;;;;;10.38;6.00;;;-2.30;88.80;;;;;;5024239;28;20111;-64
2021/12/27 00:51:02;;;;;;;14.23;8.43;;;-2.20;89.00;;;;;;5026189;28;20423;-64
2021/12/27 00:53:30;;;;;;;10.65;7.05;;;-2.20;89.20;;;;;;5022926;28;20673;-64
2021/12/27 00:55:57;;;;;;;10.20;6.50;;;-2.30;89.20;;;;;;5024469;28;20041;-64
2021/12/27 00:58:23;;;;;;;11.15;5.20;;;-2.20;89.20;;;;;;5025874;28;20059;-64
2021/12/27 01:00:51;;;;;;;10.50;5.88;;;-2.30;88.90;;;;;;5017432;28;20404;-64
2021/12/27 01:03:23;;;;;;;14.43;5.75;;;-2.20;88.70;;;;;;5024431;28;20045;-64
2021/12/27 01:05:50;;;;;;;10.85;5.22;;;-2.20;88.80;;;;;;5022572;28;20115;-64
2021/12/27 01:08:17;;;;;;;15.57;6.90;;;-2.20;88.90;;;;;;5026975;28;20045;-64
2021/12/27 01:18:35;;;;;;;9.75;6.03;;;-2.10;89.40;;;;;;5026508;28;20123;-64
2021/12/27 01:21:02;;;;;;;15.15;7.90;;;-2.00;89.60;;;;;;5025730;28;20052;-63
2021/12/27 01:23:30;;;;;;;6.95;4.00;;;-2.00;88.80;;;;;;5011185;28;20038;-64
2021/12/27 01:25:59;;;;;;;13.75;7.65;;;-2.00;88.70;;;;;;5021722;28;20049;-63
2021/12/27 01:28:26;;;;;;;4.75;3.25;;;-2.00;88.10;;;;;;5024378;28;20092;-64
2021/12/27 01:30:53;;;;;;;12.35;6.80;;;-2.00;87.90;;;;;;5025719;28;20822;-64
2021/12/27 01:33:21;;;;;;;6.45;4.18;;;-2.00;87.80;;;;;;5025526;28;20084;-64
2021/12/27 01:35:48;;;;;;;16.70;7.25;;;-2.00;87.70;;;;;;5025772;28;20048;-64
2021/12/27 01:38:15;;;;;;;12.25;6.32;;;-2.10;87.70;;;;;;5021113;28;20042;-63
2021/12/27 01:40:47;;;;;;;5.43;4.13;;;-2.10;88.10;;;;;;5024077;28;20056;-64
2021/12/27 01:43:29;;;;;;;10.60;6.00;;;-2.10;88.40;;;;;;5026632;28;20089;-64
2021/12/27 01:46:04;;;;;;;7.40;4.47;;;-2.10;88.20;;;;;;5025084;28;20056;-64
2021/12/27 01:48:37;;;;;;;11.98;6.60;;;-2.10;88.20;;;;;;5022158;28;20150;-63
2021/12/27 01:51:12;;;;;;;11.38;6.80;;;-2.10;88.20;;;;;;5025419;28;20057;-64
2021/12/27 01:53:42;;;;;;;6.90;3.45;;;-2.10;88.60;;;;;;5039624;28;20561;-64
2021/12/27 01:56:10;;;;;;;11.75;6.57;;;-2.10;88.40;;;;;;5017336;28;20065;-64
2021/12/27 01:58:41;;;;;;;4.82;3.72;;;-2.10;88.50;;;;;;5019670;28;20616;-64
2021/12/27 02:01:08;;;;;;;;;;;-2.00;88.50;;;;;;5030215;28;20568;-64
2021/12/27 02:03:36;;;;;;;13.20;6.45;;;-2.00;88.60;;;;;;5011859;28;19971;-64
2021/12/27 02:06:05;;;;;;;10.23;6.50;;;-2.00;88.60;;;;;;5043405;28;20041;-64
2021/12/27 02:08:32;;;;;;;13.55;5.70;;;-2.00;88.20;;;;;;5030065;28;20052;-64
2021/12/27 02:10:59;;;;;;;16.52;7.93;;;-1.90;88.40;;;;;;5028849;28;20484;-64
2021/12/27 02:13:25;;;;;;;9.82;5.68;;;-1.90;88.50;;;;;;5030714;28;20049;-64
2021/12/27 02:15:51;;;;;;;19.48;5.95;;;-1.90;88.70;;;;;;5028674;28;20124;-64
2021/12/27 02:18:24;;;;;;;15.15;7.93;;;-1.80;88.90;;;;;;5029033;28;20049;-64
2021/12/27 02:20:50;;;;;;;10.82;4.95;;;-1.80;88.70;;;;;;5027534;28;20051;-64
2021/12/27 02:23:18;;;;;;;15.52;8.02;;;-1.80;89.00;;;;;;5030050;28;20056;-64
2021/12/27 02:25:47;;;;;;;15.05;8.20;;;-1.80;89.10;;;;;;5029356;28;20053;-64
2021/12/27 02:28:14;;;;;;;16.15;7.18;;;-1.80;89.00;;;;;;5028862;28;20044;-64
2021/12/27 02:30:43;;;;;;;11.30;6.32;;;-1.70;89.10;;;;;;5029704;28;20060;-64
2021/12/27 02:33:10;;;;;;;14.52;8.05;;;-1.80;89.10;;;;;;5029343;28;20125;-64
2021/12/27 02:35:45;;;;;;;17.30;7.90;;;-1.70;89.40;;;;;;5028384;28;20048;-64
2021/12/27 02:38:18;;;;;;;14.50;7.40;;;-1.70;89.80;;;;;;5028831;28;20084;-64
2021/12/27 02:40:45;;;;;;;15.50;8.65;;;-1.70;89.50;;;;;;5029262;28;20048;-64
2021/12/27 02:43:15;;;;;;;10.25;5.35;;;-1.70;89.50;;;;;;5029269;28;20064;-64
2021/12/27 02:45:46;;;;;;;16.38;8.32;;;-1.70;89.90;;;;;;5025160;28;20403;-64
2021/12/27 02:48:13;;;;;;;11.75;6.82;;;-1.60;90.00;;;;;;5025764;28;20403;-64
2021/12/27 02:50:43;;;;;;;11.30;5.85;;;-1.60;90.10;;;;;;5027269;28;20037;-64
2021/12/27 02:53:11;;;;;;;12.90;7.95;;;-1.70;90.00;;;;;;5029530;28;20533;-64
2021/12/27 02:55:39;;;;;;;6.70;4.10;;;-1.60;90.00;;;;;;5027437;28;20088;-64
2021/12/27 02:58:06;;;;;;;16.15;8.80;;;-1.60;90.00;;;;;;5021196;28;20057;-64
2021/12/27 03:00:39;;;;;;;12.48;7.43;;;-1.50;90.00;;;;;;5029400;28;20046;-64
2021/12/27 03:03:07;;;;;;;14.20;7.18;;;-1.50;90.50;;;;;;5026536;28;20045;-64
2021/12/27 03:05:34;;;;;;;14.85;6.68;;;-1.50;90.10;;;;;;5028035;28;20155;-64
2021/12/27 03:08:03;;;;;;;10.27;4.88;;;-1.50;90.10;;;;;;5027406;28;20111;-64
2021/12/27 03:10:32;;;;;;;16.98;9.23;;;-1.50;90.20;;;;;;5029325;28;20073;-64
2021/12/27 03:13:03;;;;;;;14.63;7.68;;;-1.40;90.10;;;;;;5025744;28;20056;-64
2021/12/27 03:15:31;;;;;;;12.98;6.93;;;-1.40;90.20;;;;;;5027537;28;20049;-64
2021/12/27 03:17:57;;;;;;;16.83;8.25;;;-1.40;90.10;;;;;;5028698;28;20049;-64
2021/12/27 03:20:26;;;;;;;15.45;7.85;;;-1.40;90.10;;;;;;5023332;28;20053;-64
2021/12/27 03:22:53;;;;;;;16.23;8.95;;;-1.40;90.10;;;;;;5026262;28;20042;-64
2021/12/27 03:25:22;;;;;;;14.65;7.82;;;-1.30;90.30;;;;;;5024877;28;20122;-64
2021/12/27 03:27:50;;;;;;;14.55;7.80;;;-1.40;90.20;;;;;;5027375;28;20053;-64
2021/12/27 03:30:22;;;;;;;9.82;5.80;;;-1.30;90.40;;;;;;5027386;28;20057;-64
2021/12/27 03:32:49;;;;;;;21.10;9.82;;;-1.30;90.40;;;;;;5028194;28;20042;-64
2021/12/27 03:35:24;;;;;;;9.63;6.43;;;-1.30;90.50;;;;;;5023309;28;20042;-64
2021/12/27 03:37:58;;;;;;;8.80;5.15;;;-1.30;90.60;;;;;;5027087;28;20149;-64
2021/12/27 03:40:26;;;;;;;16.10;9.35;;;-1.30;90.70;;;;;;5024113;28;20096;-64
2021/12/27 03:42:53;;;;;;;16.95;9.15;;;-1.30;90.70;;;;;;5020977;28;20211;-64
2021/12/27 03:45:24;;;;;;;7.03;4.68;;;-1.20;90.90;;;;;;5027411;28;20057;-64
2021/12/27 03:47:50;;;;;;;16.38;8.98;;;-1.20;90.80;;;;;;5027625;28;20053;-64
2021/12/27 03:50:19;;;;;;;21.90;9.02;;;-1.20;90.70;;;;;;5027516;28;20409;-64
2021/12/27 03:52:46;;;;;;;17.50;9.35;;;-1.20;90.80;;;;;;5028694;28;20041;-64
2021/12/27 03:55:19;;;;;;;15.68;7.28;;;-1.20;90.80;;;;;;5040577;28;20084;-64
2021/12/27 03:57:52;;;;;;;16.13;8.43;;;-1.20;91.00;;;;;;5029182;28;20550;-64
2021/12/27 04:02:51;;;;;;;13.07;6.95;;;-1.10;90.90;;;;;;5027519;28;20041;-64
2021/12/27 04:05:19;;;;;;;14.13;7.72;;;-1.10;91.30;;;;;;5027647;28;20554;-64
2021/12/27 04:07:47;;;;;;;14.32;9.70;;;-1.10;91.30;;;;;;5026373;28;20103;-64
2021/12/27 04:10:14;;;;;;;13.95;8.23;;;-1.10;91.60;;;;;;5028122;28;20042;-64
2021/12/27 04:12:41;;;;;;;13.00;7.57;;;-1.10;91.70;;;;;;5026527;28;20443;-64
2021/12/27 04:15:10;;;;;;;16.27;7.55;;;-1.10;92.00;;;;;;5026715;28;20081;-64
2021/12/27 04:17:36;;;;;;;15.85;9.00;;;-1.10;92.00;;;;;;5040525;28;20091;-64
2021/12/27 04:20:10;;;;;;;17.13;8.35;;;-1.10;91.80;;;;;;5027126;28;20053;-64
2021/12/27 04:22:37;;;;;;;20.23;9.77;;;-1.10;91.80;;;;;;5028040;28;20119;-64
2021/12/27 04:25:04;;;;;;;15.38;7.97;;;-1.10;91.80;;;;;;5026316;28;20049;-64
2021/12/27 04:27:30;;;;;;;12.65;7.60;;;-1.10;91.80;;;;;;5026576;28;20140;-63
2021/12/27 04:29:57;;;;;;;9.77;6.22;;;-1.00;92.10;;;;;;5025754;28;20044;-65
2021/12/27 04:32:23;;;;;;;12.70;6.38;;;-1.00;92.10;;;;;;5021838;28;20456;-64
2021/12/27 04:34:50;;;;;;;13.95;7.22;;;-1.00;92.30;;;;;;5026402;28;20479;-64
2021/12/27 04:37:16;;;;;;;16.08;8.45;;;-1.00;92.40;;;;;;5026489;28;20136;-64
2021/12/27 04:39:43;;;;;;;13.18;8.13;;;-1.00;92.30;;;;;;5027572;28;20099;-63
2021/12/27 04:42:11;;;;;;;12.75;7.63;;;-1.00;92.20;;;;;;5025728;28;20178;-64
2021/12/27 04:44:38;;;;;;;14.23;7.68;;;-0.90;92.20;;;;;;5027902;28;20049;-64
2021/12/27 04:47:04;;;;;;;17.00;10.23;;;-0.90;92.20;;;;;;5023827;28;20049;-64
2021/12/27 04:49:31;;;;;;;22.98;10.68;;;-0.90;92.40;;;;;;5026447;28;20049;-64
2021/12/27 04:51:57;;;;;;;17.83;8.60;;;-0.90;92.40;;;;;;5024691;28;20081;-64
2021/12/27 04:54:23;;;;;;;16.08;9.40;;;-0.90;92.40;;;;;;5026173;28;20488;-64
2021/12/27 04:56:50;;;;;;;19.48;9.15;;;-0.90;92.30;;;;;;5026699;28;20067;-64
2021/12/27 04:59:16;;;;;;;18.50;10.20;;;-0.80;92.50;;;;;;5023145;28;20049;-64
2021/12/27 05:01:48;;;;;;;16.05;8.50;;;-0.80;92.80;;;;;;5027610;28;20038;-64
2021/12/27 05:04:15;;;;;;;14.80;9.68;;;-0.80;92.50;;;;;;5025616;28;20061;-64
2021/12/27 05:06:41;;;;;;;15.07;8.40;;;-0.80;92.50;;;;;;5027170;28;20080;-64
2021/12/27 05:09:08;;;;;;;18.45;11.75;;;-0.80;92.60;;;;;;5023302;28;20053;-64
2021/12/27 05:11:35;;;;;;;16.77;9.25;;;-0.80;92.50;;;;;;5027148;28;20562;-64
2021/12/27 05:14:03;;;;;;;17.92;10.63;;;-0.80;92.50;;;;;;5025823;28;20688;-64
2021/12/27 05:16:30;;;;;;;14.32;8.27;;;-0.70;92.50;;;;;;5026179;28;20539;-64
2021/12/27 05:18:56;;;;;;;20.50;11.82;;;-0.70;92.50;;;;;;5024067;28;20131;-64
2021/12/27 05:21:23;;;;;;;17.83;10.15;;;-0.70;92.50;;;;;;5025350;28;20044;-64
2021/12/27 05:23:51;;;;;;;15.65;9.68;;;-0.70;92.50;;;;;;5026975;28;20072;-64
2021/12/27 05:26:18;;;;;;;16.42;7.93;;;-0.70;92.50;;;;;;5024838;28;20121;-64
2021/12/27 05:28:44;;;;;;;19.33;11.20;;;-0.70;92.40;;;;;;5025152;28;20049;-64
2021/12/27 05:31:11;;;;;;;16.23;8.63;;;-0.70;92.50;;;;;;5021933;28;20049;-64
2021/12/27 05:33:39;;;;;;;23.27;10.27;;;-0.60;92.60;;;;;;5025162;28;20099;-64
2021/12/27 05:36:05;;;;;;;18.13;8.95;;;-0.60;92.60;;;;;;5026047;28;20396;-64
2021/12/27 05:38:32;;;;;;;17.85;10.27;;;-0.60;92.90;;;;;;5025798;28;20037;-64
2021/12/27 05:40:59;;;;;;;18.55;8.18;;;-0.60;92.60;;;;;;5020934;28;20084;-64
2021/12/27 05:43:27;;;;;;;18.27;9.70;;;-0.60;92.80;;;;;;5024957;28;20107;-64
2021/12/27 05:45:53;;;;;;;19.48;9.80;;;-0.60;92.90;;;;;;5022878;28;20662;-64
2021/12/27 05:48:20;;;;;;;17.98;10.10;;;-0.60;92.80;;;;;;5022264;28;20046;-64
2021/12/27 05:50:46;;;;;;;19.48;9.70;;;-0.60;92.80;;;;;;5023290;28;20037;-64
2021/12/27 05:53:13;;;;;;;17.80;10.25;;;-0.60;92.90;;;;;;5026129;28;20068;-64
2021/12/27 05:55:39;;;;;;;22.45;11.40;;;-0.60;92.80;;;;;;5017291;28;20212;-64
2021/12/27 05:58:06;;;;;;;16.77;9.10;;;-0.60;92.80;;;;;;5019891;28;20068;-64
2021/12/27 06:00:32;;;;;;;17.42;10.00;;;-0.60;92.90;;;;;;5013107;28;20146;-64
2021/12/27 06:03:01;;;;;;;12.05;7.68;;;-0.60;93.00;;;;;;5023594;28;20049;-64
2021/12/27 06:05:27;;;;;;;9.45;5.57;;;-0.60;92.80;;;;;;5025101;28;20403;-64
2021/12/27 06:07:54;;;;;;;10.25;6.07;;;-0.60;92.50;;;;;;5025290;28;20065;-64
2021/12/27 06:10:22;;;;;;;14.02;8.32;;;-0.60;92.40;;;;;;5025300;28;20045;-64
2021/12/27 06:12:50;;;;;;;11.93;5.78;;;-0.60;92.40;;;;;;5024153;28;20041;-65
2021/12/27 06:15:17;;;;;;;9.23;5.38;;;-0.60;92.30;;;;;;5025148;28;20050;-64
2021/12/27 06:17:43;;;;;;;15.80;8.57;;;-0.60;92.50;;;;;;5023438;28;20454;-64
2021/12/27 06:20:14;;;;;;;13.80;6.93;;;-0.60;92.60;;;;;;5026034;28;20120;-64
2021/12/27 06:22:51;;;;;;;15.85;8.18;;;-0.60;92.80;;;;;;5023519;28;20053;-64
2021/12/27 06:25:18;;;;;;;17.52;9.25;;;-0.60;92.90;;;;;;5025907;28;20179;-64
2021/12/27 06:27:44;;;;;;;21.10;9.85;;;-0.60;92.80;;;;;;5011137;28;20050;-64
2021/12/27 06:30:13;;;;;;;18.80;9.73;;;-0.60;92.80;;;;;;5024971;28;20496;-64
2021/12/27 06:32:40;;;;;;;8.32;3.65;;;-0.60;92.80;;;;;;5025279;28;20041;-64
2021/12/27 06:35:11;;;;;;;16.42;7.45;;;-0.60;92.90;;;;;;5010742;28;20057;-64
2021/12/27 06:37:42;;;;;;;17.65;11.05;;;-0.60;92.90;;;;;;5026426;28;20462;-64
2021/12/27 06:40:10;;;;;;;14.15;7.40;;;-0.60;92.90;;;;;;5038482;28;20510;-64
2021/12/27 06:42:38;;;;;;;14.27;8.48;;;-0.60;92.90;;;;;;5023176;28;20049;-64
2021/12/27 06:45:05;;;;;;;16.17;9.93;;;-0.60;92.70;;;;;;5025035;28;20570;-64
2021/12/27 06:47:32;;;;;;;10.50;6.43;;;-0.60;92.70;;;;;;5026566;28;20116;-64
2021/12/27 06:49:58;;;;;;;10.23;6.43;;;-0.60;92.60;;;;;;5028365;28;20053;-64
2021/12/27 06:52:26;;;;;;;16.38;10.65;;;-0.60;92.50;;;;;;5025054;28;20049;-64
2021/12/27 06:54:52;;;;;;;19.77;10.57;;;-0.60;92.50;;;;;;5029716;28;20069;-64
2021/12/27 06:57:20;;;;;;;12.75;8.00;;;-0.60;92.70;;;;;;5027709;28;20538;-64
2021/12/27 06:59:52;;;;;;;22.38;10.23;;;-0.60;92.70;;;;;;5029420;28;20488;-64
2021/12/27 07:02:18;;;;;;;21.58;11.80;;;-0.60;92.80;;;;;;5028865;28;20041;-64
2021/12/27 07:04:45;;;;;;;19.17;11.85;;;-0.60;92.80;;;;;;5009306;28;20075;-64
2021/12/27 07:07:11;;;;;;;23.42;11.82;;;-0.60;92.80;;;;;;5028547;28;20037;-64
2021/12/27 07:09:38;;;;;;;19.40;10.70;;;-0.60;92.90;;;;;;5028203;28;20581;-64
2021/12/27 07:12:07;;;;;;;19.38;9.27;;;-0.50;92.70;;;;;;5029446;28;20419;-64
2021/12/27 07:14:33;;;;;;;20.50;10.75;;;-0.50;92.80;;;;;;5025275;28;20064;-64
2021/12/27 07:16:59;;;;;;;20.05;8.73;;;-0.50;92.80;;;;;;5028207;28;20476;-64
2021/12/27 07:19:27;;;;;;;12.75;6.90;;;-0.50;92.90;;;;;;5028344;28;20367;-64
2021/12/27 07:21:54;;;;;;;19.67;10.57;;;-0.50;93.00;;;;;;5028407;28;20046;-64
2021/12/27 07:24:21;;;;;;;18.08;10.73;;;-0.50;93.00;;;;;;5025241;28;20511;-64
2021/12/27 07:26:49;;;;;;;19.13;9.85;;;-0.50;93.10;;;;;;5026500;28;20046;-64
2021/12/27 07:29:15;;;;;;;18.75;11.48;;;-0.50;93.20;;;;;;5027388;28;20080;-64
2021/12/27 07:31:42;;;;;;;19.08;8.65;;;-0.50;93.30;;;;;;5026836;28;20396;-64
2021/12/27 07:34:08;;;;;;;13.63;6.97;;;-0.50;93.40;;;;;;5027325;28;20151;-64
2021/12/27 07:36:34;;;;;;;22.67;9.88;;;-0.50;93.50;;;;;;5027083;28;20103;-64
2021/12/27 07:39:01;;;;;;;21.73;10.75;;;-0.40;93.50;;;;;;5028038;28;20099;-64
2021/12/27 07:41:29;;;;;;;22.08;12.73;;;-0.50;93.70;;;;;;5028552;28;20038;-64
2021/12/27 07:43:56;;;;;;;19.95;11.23;;;-0.40;93.70;;;;;;5026046;28;20503;-64
2021/12/27 07:46:23;;;;;;;21.52;12.77;;;-0.40;93.70;;;;;;5015718;28;20060;-64
2021/12/27 07:48:52;;;;;;;25.45;13.82;;;-0.40;93.70;;;;;;5025788;28;20115;-64
2021/12/27 07:51:18;;;;;;;21.88;11.95;;;-0.40;93.70;;;;;;5028261;28;20496;-64
2021/12/27 07:53:44;;;;;;;19.67;10.80;;;-0.40;93.70;;;;;;5027549;28;20041;-64
2021/12/27 07:56:11;;;;;;;19.48;10.32;;;-0.40;93.70;;;;;;5026169;28;20066;-64
2021/12/27 07:58:37;;;;;;;27.55;12.57;;;-0.40;93.80;;;;;;5027912;28;20088;-64
2021/12/27 08:01:04;;;;;;;23.67;12.68;;;-0.40;93.90;;;;;;5026986;28;20052;-64
2021/12/27 08:03:30;;;;;;;25.27;13.38;;;-0.40;93.80;;;;;;5027692;28;20045;-64
2021/12/27 08:05:57;;;;;;;24.70;12.55;;;-0.30;93.90;;;;;;5026061;28;20156;-64
2021/12/27 08:08:23;;;;;;;22.27;11.82;;;-0.40;93.90;;;;;;5027588;28;20132;-64
2021/12/27 08:10:50;;;;;;;25.08;12.02;;;-0.40;93.80;;;;;;5022144;28;20475;-64
2021/12/27 08:13:16;;;;;;;21.42;12.43;;;-0.30;93.80;;;;;;5026284;28;20057;-64
2021/12/27 08:15:42;;;;;;;26.10;13.75;;;-0.30;93.80;;;;;;5026968;28;20057;-64
2021/12/27 08:18:09;;;;;;;21.55;12.90;;;-0.30;93.70;;;;;;5026236;28;20136;-64
2021/12/27 08:20:35;;;;;;;22.55;12.70;;;-0.30;93.70;;;;;;5027607;28;20492;-64
2021/12/27 08:23:03;;;;;;;27.63;13.15;;;-0.20;93.80;;;;;;5023646;28;20080;-64
2021/12/27 08:25:31;;;;;;;22.55;12.80;;;-0.20;93.80;;;;;;5025228;28;20601;-64
2021/12/27 08:27:58;;;;;;;21.35;9.80;;;-0.20;93.90;;;;;;5025399;28;20443;-65
2021/12/27 08:30:24;;;;;;;30.92;12.35;;;-0.20;93.90;;;;;;5016769;28;20049;-65
2021/12/27 08:32:52;;;;;;;29.23;13.65;;;-0.20;93.90;;;;;;5027648;28;20404;-64
2021/12/27 08:35:20;;;;;;;26.98;13.18;;;-0.20;94.00;;;;;;5025438;28;20096;-64
2021/12/27 08:37:46;;;;;;;29.30;14.20;;;-0.20;93.90;;;;;;5027263;28;20504;-64
2021/12/27 08:40:14;;;;;;;27.13;12.55;;;-0.10;94.10;;;;;;5025311;28;20690;-64
2021/12/27 08:42:41;;;;;;;25.98;12.35;;;-0.10;94.10;;;;;;5000460;28;20051;-64
2021/12/27 08:45:11;;;;;;;27.80;13.55;;;-0.10;94.00;;;;;;5027413;28;20571;-65
2021/12/27 08:47:38;;;;;;;29.63;14.48;;;-0.10;94.00;;;;;;5026910;28;20038;-64
2021/12/27 08:50:07;;;;;;;27.05;13.43;;;-0.10;94.00;;;;;;5025721;28;20046;-65
2021/12/27 08:52:34;;;;;;;20.13;10.18;;;-0.10;93.90;;;;;;5024686;28;20133;-64
2021/12/27 08:55:01;;;;;;;20.27;10.00;;;-0.10;94.00;;;;;;5026376;28;20053;-65
2021/12/27 08:57:28;;;;;;;24.70;14.02;;;-0.10;93.90;;;;;;5000329;28;20050;-64
2021/12/27 08:59:55;;;;;;;27.73;12.15;;;-0.10;93.80;;;;;;5025896;28;20064;-65
2021/12/27 09:02:21;;;;;;;28.50;12.80;;;0.00;93.90;;;;;;5021974;28;20080;-64
2021/12/27 09:04:48;;;;;;;23.30;10.68;;;0.00;93.90;;;;;;5025558;28;20415;-65
2021/12/27 09:07:15;;;;;;;27.05;13.32;;;0.00;93.90;;;;;;5025783;28;20107;-64
2021/12/27 09:09:44;;;;;;;15.48;7.13;;;0.00;93.80;;;;;;5023886;28;20046;-65
2021/12/27 09:12:13;;;;;;;16.58;8.90;;;0.00;93.90;;;;;;5025078;28;20547;-65
2021/12/27 09:14:39;;;;;;;25.27;11.98;;;0.00;94.00;;;;;;5020392;28;20049;-64
2021/12/27 09:17:06;;;;;;;23.40;12.73;;;0.00;94.00;;;;;;5025683;28;20049;-64
2021/12/27 09:19:34;;;;;;;32.53;13.15;;;0.00;94.00;;;;;;5025247;28;20117;-65
2021/12/27 09:22:00;;;;;;;26.55;13.18;;;0.10;94.00;;;;;;5026692;28;20064;-65
2021/12/27 09:24:28;;;;;;;19.05;9.65;;;0.10;93.90;;;;;;5021795;28;20045;-65
2021/12/27 09:26:56;;;;;;;32.75;13.52;;;0.10;93.80;;;;;;5025237;28;20045;-65
2021/12/27 09:29:23;;;;;;;30.17;13.85;;;0.10;93.90;;;;;;5013869;28;20045;-64
2021/12/27 09:31:50;;;;;;;24.98;13.07;;;0.10;93.90;;;;;;5025515;28;20484;-64
2021/12/27 09:34:18;;;;;;;28.00;13.55;;;0.10;94.00;;;;;;5015724;28;20136;-64
2021/12/27 09:36:44;;;;;;;28.45;13.40;;;0.10;94.10;;;;;;5035216;28;20060;-64
2021/12/27 09:39:11;;;;;;;30.20;15.02;;;0.10;94.00;;;;;;5026388;28;20052;-65
2021/12/27 09:41:40;;;;;;;27.58;13.98;;;0.10;94.00;;;;;;4975006;28;20145;-64
2021/12/27 09:44:07;;;;;;;25.20;12.63;;;0.20;94.00;;;;;;5021834;28;20504;-64
2021/12/27 09:46:35;;;;;;;23.58;12.38;;;0.20;94.10;;;;;;5024448;28;20088;-64
2021/12/27 09:49:06;;;;;;;30.20;14.38;;;0.20;94.10;;;;;;5024184;28;20052;-64
2021/12/27 09:51:34;;;;;;;30.58;12.98;;;0.20;93.90;;;;;;5025242;28;20103;-64
2021/12/27 09:54:01;;;;;;;25.63;13.35;;;0.30;94.10;;;;;;5023896;28;20473;-64
2021/12/27 09:56:28;;;;;;;23.63;12.18;;;0.30;94.00;;;;;;5023891;28;20069;-64
2021/12/27 09:58:55;;;;;;;30.35;12.93;;;0.30;94.00;;;;;;5025175;28;20045;-64
2021/12/27 10:01:24;;;;;;;28.48;14.60;;;0.30;94.00;;;;;;5025806;28;20080;-65
2021/12/27 10:03:54;;;;;;;23.95;13.77;;;0.30;94.00;;;;;;5025899;28;20053;-64
2021/12/27 10:06:23;;;;;;;21.83;12.82;;;0.40;94.10;;;;;;5016015;28;20077;-64
2021/12/27 10:08:53;;;;;;;28.70;13.20;;;0.40;94.10;;;;;;4997551;28;20114;-64
2021/12/27 10:11:26;;;;;;;24.50;13.82;;;0.40;94.20;;;;;;5017024;28;20123;-64
2021/12/27 10:14:18;;;;;;;33.03;15.02;;;0.40;94.20;;;;;;5026246;28;20052;-64
2021/12/27 10:17:06;;;;;;;25.00;11.93;;;0.40;94.30;;;;;;5023771;28;20050;-65
2021/12/27 10:19:34;;;;;;;28.40;12.55;;;0.50;94.40;;;;;;5022153;28;20073;-64
2021/12/27 10:22:01;;;;;;;25.58;12.65;;;0.50;94.50;;;;;;5028155;28;20116;-65
2021/12/27 10:24:28;;;;;;;26.42;14.43;;;0.50;94.60;;;;;;5024590;28;20497;-65
2021/12/27 10:26:57;;;;;;;26.80;12.45;;;0.50;95.00;;;;;;5028845;28;20045;-65
2021/12/27 10:29:30;;;;;;;29.05;13.63;;;0.50;95.50;;;;;;5024436;28;20100;-64
2021/12/27 10:31:56;;;;;;;35.10;15.13;;;0.50;95.80;;;;;;5011508;28;20476;-65
2021/12/27 10:34:28;;;;;;;29.27;14.73;;;0.40;96.10;;;;;;5029619;28;20128;-64
2021/12/27 10:37:21;;;;;;;31.52;13.68;;;0.40;96.40;;;;;;5024984;28;20050;-65
2021/12/27 10:39:50;;;;;;;31.55;13.48;;;0.50;96.70;;;;;;5028003;28;20544;-65
2021/12/27 10:42:28;;;;;;;28.35;12.43;;;0.50;96.80;;;;;;5026354;28;20053;-64
2021/12/27 10:44:58;;;;;;;32.53;15.45;;;0.50;96.80;;;;;;5028105;28;20128;-64
2021/12/27 10:47:31;;;;;;;31.30;15.60;;;0.50;96.80;;;;;;5026411;28;20176;-64
2021/12/27 10:50:17;;;;;;;33.65;15.95;;;0.50;96.70;;;;;;5041898;28;20049;-65
2021/12/27 10:53:04;;;;;;;31.25;15.55;;;0.60;96.80;;;;;;5027125;28;20053;-65
2021/12/27 10:55:38;;;;;;;31.05;14.77;;;0.60;96.80;;;;;;5027476;28;20041;-64
2021/12/27 10:58:37;;;;;;;33.45;15.85;;;0.60;96.70;;;;;;5025220;28;20041;-65
2021/12/27 11:01:11;;;;;;;27.25;13.77;;;0.70;96.80;;;;;;5026944;28;20054;-65
2021/12/27 11:03:39;;;;;;;28.13;12.93;;;0.70;96.90;;;;;;5027583;28;20037;-65
2021/12/27 11:06:08;;;;;;;32.13;15.15;;;0.70;96.70;;;;;;5028666;28;20064;-65
2021/12/27 11:08:44;;;;;;;26.20;12.98;;;0.80;96.80;;;;;;5027598;28;20495;-64
2021/12/27 11:11:15;;;;;;;38.63;13.02;;;0.80;96.60;;;;;;5028180;28;20076;-65
2021/12/27 11:13:42;;;;;;;37.85;16.85;;;0.80;96.60;;;;;;5011143;28;20081;-64
2021/12/27 11:16:09;;;;;;;35.28;13.70;;;0.80;96.70;;;;;;5026785;28;20041;-64
2021/12/27 11:18:36;;;;;;;27.63;13.60;;;0.90;96.70;;;;;;5018949;28;20057;-65
2021/12/27 11:21:16;;;;;;;33.10;17.58;;;0.90;96.60;;;;;;5028428;28;20500;-64
2021/12/27 11:23:46;;;;;;;41.22;17.52;;;0.90;96.60;;;;;;5027680;28;20172;-65
2021/12/27 11:26:15;;;;;;;36.88;16.55;;;0.90;96.60;;;;;;5013762;28;20849;-64
2021/12/27 11:28:44;;;;;;;30.48;15.23;;;1.00;96.40;;;;;;5023551;28;20465;-64
2021/12/27 11:31:30;;;;;;;34.85;15.23;;;1.00;96.50;;;;;;5027938;28;20072;-64
2021/12/27 11:34:03;;;;;;;28.08;13.90;;;1.00;96.40;;;;;;5025945;28;20045;-64
2021/12/27 11:36:32;;;;;;;38.70;17.60;;;1.00;96.50;;;;;;5026201;28;20110;-64
2021/12/27 11:39:16;;;;;;;38.33;16.58;;;1.10;96.60;;;;;;5027426;28;20050;-64
2021/12/27 11:41:42;;;;;;;40.00;15.27;;;1.10;96.60;;;;;;5024603;28;20061;-64
2021/12/27 11:44:17;;;;;;;30.30;13.32;;;1.10;96.60;;;;;;5010377;28;20205;-64
2021/12/27 11:46:47;;;;;;;33.40;14.75;;;1.10;96.50;;;;;;5025955;28;20062;-65
2021/12/27 11:49:16;;;;;;;27.45;10.35;;;1.20;96.40;;;;;;5016867;28;20072;-65
2021/12/27 11:51:46;;;;;;;35.20;14.77;;;1.20;96.50;;;;;;5026439;28;20045;-64
2021/12/27 11:54:30;;;;;;;25.77;13.35;;;1.20;96.40;;;;;;5027366;28;20136;-64
2021/12/27 11:56:57;;;;;;;45.92;19.60;;;1.30;96.50;;;;;;5025660;28;20045;-64
2021/12/27 11:59:36;;;;;;;33.45;15.13;;;1.30;96.30;;;;;;5023292;28;20085;-65
2021/12/27 12:02:23;;;;;;;37.00;15.80;;;1.30;96.20;;;;;;5041913;28;20308;-65
2021/12/27 12:04:56;;;;;;;35.75;16.38;;;1.30;96.20;;;;;;5026873;28;20495;-65
2021/12/27 12:07:34;;;;;;;31.13;15.60;;;1.30;96.10;;;;;;5024813;28;20430;-65
2021/12/27 12:10:03;;;;;;;42.33;18.75;;;1.30;96.20;;;;;;5027167;28;20037;-64
2021/12/27 12:12:30;;;;;;;39.15;17.10;;;1.30;96.20;;;;;;5025284;28;20081;-65
2021/12/27 12:14:58;;;;;;;47.05;18.13;;;1.20;96.30;;;;;;5025725;28;20057;-65
2021/12/27 12:17:56;;;;;;;43.55;18.70;;;1.20;96.30;;;;;;5026799;28;20073;-65
2021/12/27 12:20:26;;;;;;;37.80;15.98;;;1.20;96.40;;;;;;4998466;28;20050;-65
2021/12/27 12:23:09;;;;;;;36.88;16.17;;;1.10;96.50;;;;;;5024700;28;20068;-65
2021/12/27 12:25:38;;;;;;;47.67;18.75;;;1.10;96.80;;;;;;5023617;28;20081;-65
2021/12/27 12:28:17;;;;;;;47.42;19.80;;;1.10;97.00;;;;;;5043498;28;20136;-65
2021/12/27 12:30:48;;;;;;;48.85;18.67;;;1.20;97.20;;;;;;5026091;28;20204;-65
2021/12/27 12:33:26;;;;;;;34.95;15.80;;;1.20;97.20;;;;;;4998486;28;20054;-65
2021/12/27 12:35:57;;;;;;;40.88;18.17;;;1.20;97.30;;;;;;5026586;28;20049;-65
2021/12/27 12:38:32;;;;;;;39.45;16.73;;;1.20;97.40;;;;;;5025996;28;20053;-65
2021/12/27 12:41:05;;;;;;;40.45;16.58;;;1.20;97.50;;;;;;5024436;28;20145;-65
2021/12/27 12:43:49;;;;;;;37.40;12.80;;;1.20;97.60;;;;;;5025521;28;20053;-65
2021/12/27 12:46:28;;;;;;;46.03;17.65;;;1.20;97.60;;;;;;5023288;28;20132;-65
2021/12/27 12:49:12;;;;;;;52.33;19.58;;;1.20;97.50;;;;;;5025781;28;20500;-65
2021/12/27 12:51:52;;;;;;;45.88;19.33;;;1.20;97.50;;;;;;5024950;28;20076;-65
2021/12/27 12:54:22;;;;;;;46.50;17.40;;;1.30;97.50;;;;;;5025084;28;20045;-65
2021/12/27 12:57:03;;;;;;;55.78;19.23;;;1.30;97.50;;;;;;5026297;28;20049;-65